SAS1878 BKPR-ESGG
Flight info
| Callsign | SAS1878 |
|---|---|
| Flight time | N/A |
| Altitude | 38000 |
| Route | KUKAD1D KUKAD DCT RETRA DCT POD DCT OSLUD DCT SIVLA DCT BAREB DCT VALPI DCT DESEN DCT ARMEX L617 XIDNA DCT ROE DCT NILEN L617 ARQUS |
| Aircraft | A20N/M-SDE3FGIJ1RWXY/ALB1 |
Departure
| Time | 2026-04-23 14:45 |
|---|---|
| Airport | Priština Adem Jashari International Airport (BKPR) |
Arrival
| Time | N/A |
|---|---|
| Airport | Göteborg Landvetter Airport (ESGG) |
| Time | Latitude | Longitude | Altitude | Speed | Heading |
|---|---|---|---|---|---|
| 2026-04-23 14:18 | 42.57475 | 21.03139 | 1795 ft | 0 kts | 266° |
| 2026-04-23 14:35 | 42.57475 | 21.03140 | 1795 ft | 1 kts | 266° |
| 2026-04-23 14:35 | 42.57476 | 21.03160 | 1795 ft | 2 kts | 265° |
| 2026-04-23 14:35 | 42.57478 | 21.03180 | 1795 ft | 2 kts | 266° |
| 2026-04-23 14:35 | 42.57479 | 21.03201 | 1795 ft | 2 kts | 265° |
| 2026-04-23 14:36 | 42.57479 | 21.03213 | 1795 ft | 1 kts | 266° |
| 2026-04-23 14:36 | 42.57484 | 21.03225 | 1795 ft | 1 kts | 200° |
| 2026-04-23 14:36 | 42.57491 | 21.03227 | 1795 ft | 0 kts | 168° |
| 2026-04-23 14:36 | 42.57497 | 21.03225 | 1795 ft | 0 kts | 175° |
| 2026-04-23 14:38 | 42.57493 | 21.03226 | 1795 ft | 1 kts | 175° |
| 2026-04-23 14:39 | 42.57473 | 21.03228 | 1795 ft | 4 kts | 175° |
| 2026-04-23 14:39 | 42.57438 | 21.03232 | 1794 ft | 6 kts | 176° |
| 2026-04-23 14:39 | 42.57388 | 21.03237 | 1794 ft | 8 kts | 176° |
| 2026-04-23 14:39 | 42.57335 | 21.03263 | 1794 ft | 9 kts | 116° |
| 2026-04-23 14:40 | 42.57303 | 21.03338 | 1793 ft | 9 kts | 159° |
| 2026-04-23 14:40 | 42.57230 | 21.03349 | 1793 ft | 11 kts | 177° |
| 2026-04-23 14:40 | 42.57148 | 21.03357 | 1793 ft | 12 kts | 173° |
| 2026-04-23 14:40 | 42.57062 | 21.03366 | 1793 ft | 12 kts | 176° |
| 2026-04-23 14:41 | 42.56973 | 21.03375 | 1794 ft | 13 kts | 175° |
| 2026-04-23 14:41 | 42.56880 | 21.03385 | 1794 ft | 13 kts | 176° |
| 2026-04-23 14:41 | 42.56787 | 21.03395 | 1795 ft | 13 kts | 175° |
| 2026-04-23 14:41 | 42.56687 | 21.03406 | 1796 ft | 14 kts | 176° |
| 2026-04-23 14:42 | 42.56583 | 21.03415 | 1798 ft | 15 kts | 175° |
| 2026-04-23 14:42 | 42.56472 | 21.03427 | 1799 ft | 16 kts | 175° |
| 2026-04-23 14:42 | 42.56358 | 21.03439 | 1800 ft | 16 kts | 175° |
| 2026-04-23 14:42 | 42.56247 | 21.03450 | 1801 ft | 15 kts | 176° |
| 2026-04-23 14:43 | 42.56140 | 21.03460 | 1803 ft | 15 kts | 175° |
| 2026-04-23 14:43 | 42.56035 | 21.03472 | 1804 ft | 14 kts | 176° |
| 2026-04-23 14:43 | 42.55933 | 21.03480 | 1804 ft | 14 kts | 175° |
| 2026-04-23 14:43 | 42.55833 | 21.03493 | 1805 ft | 14 kts | 164° |
| 2026-04-23 14:44 | 42.55804 | 21.03591 | 1806 ft | 12 kts | 87° |
| 2026-04-23 14:44 | 42.55813 | 21.03707 | 1805 ft | 10 kts | 74° |
| 2026-04-23 14:44 | 42.55838 | 21.03734 | 1805 ft | 1 kts | 5° |
| 2026-04-23 14:44 | 42.55852 | 21.03735 | 1805 ft | 5 kts | 4° |
| 2026-04-23 14:45 | 42.56068 | 21.03718 | 1803 ft | 66 kts | 355° |
| 2026-04-23 14:45 | 42.56746 | 21.03642 | 1795 ft | 128 kts | 355° |
| 2026-04-23 14:45 | 42.57789 | 21.03534 | 1927 ft | 163 kts | 356° |
| 2026-04-23 14:45 | 42.58910 | 21.03424 | 2495 ft | 163 kts | 356° |
| 2026-04-23 14:46 | 42.60056 | 21.03297 | 3092 ft | 167 kts | 356° |
| 2026-04-23 14:46 | 42.61228 | 21.03153 | 3681 ft | 172 kts | 355° |
| 2026-04-23 14:46 | 42.62461 | 21.02996 | 4061 ft | 187 kts | 355° |
| 2026-04-23 14:46 | 42.63785 | 21.02657 | 4406 ft | 205 kts | 335° |
| 2026-04-23 14:47 | 42.64867 | 21.01266 | 4740 ft | 229 kts | 306° |
| 2026-04-23 14:47 | 42.65749 | 20.99405 | 5301 ft | 240 kts | 304° |
| 2026-04-23 14:47 | 42.66642 | 20.97503 | 6037 ft | 244 kts | 306° |
| 2026-04-23 14:47 | 42.67593 | 20.95590 | 6828 ft | 246 kts | 308° |
| 2026-04-23 14:48 | 42.68550 | 20.93678 | 7586 ft | 251 kts | 297° |
| 2026-04-23 14:48 | 42.68897 | 20.91369 | 8372 ft | 259 kts | 269° |
| 2026-04-23 14:48 | 42.68422 | 20.88984 | 9056 ft | 272 kts | 244° |
| 2026-04-23 14:48 | 42.67128 | 20.87021 | 9513 ft | 292 kts | 218° |
| 2026-04-23 14:49 | 42.65463 | 20.85441 | 10170 ft | 300 kts | 217° |
| 2026-04-23 14:49 | 42.63726 | 20.83735 | 10652 ft | 315 kts | 218° |
| 2026-04-23 14:49 | 42.61991 | 20.82004 | 11481 ft | 314 kts | 218° |
| 2026-04-23 14:49 | 42.60296 | 20.80302 | 12363 ft | 312 kts | 218° |
| 2026-04-23 14:50 | 42.58569 | 20.78562 | 13046 ft | 317 kts | 218° |
| 2026-04-23 14:50 | 42.56782 | 20.76755 | 13700 ft | 323 kts | 217° |
| 2026-04-23 14:50 | 42.54959 | 20.74913 | 14384 ft | 328 kts | 217° |
| 2026-04-23 14:50 | 42.53132 | 20.73068 | 15040 ft | 333 kts | 217° |
| 2026-04-23 14:51 | 42.51279 | 20.71197 | 15668 ft | 338 kts | 217° |
| 2026-04-23 14:51 | 42.49564 | 20.69025 | 16277 ft | 342 kts | 233° |
| 2026-04-23 14:51 | 42.48338 | 20.66253 | 16763 ft | 349 kts | 250° |
| 2026-04-23 14:51 | 42.47449 | 20.63099 | 17062 ft | 364 kts | 253° |
| 2026-04-23 14:52 | 42.46600 | 20.59797 | 17341 ft | 379 kts | 253° |
| 2026-04-23 14:52 | 42.45717 | 20.56380 | 17614 ft | 394 kts | 253° |
| 2026-04-23 14:52 | 42.44773 | 20.52814 | 17904 ft | 408 kts | 252° |
| 2026-04-23 14:52 | 42.43795 | 20.49199 | 18380 ft | 415 kts | 252° |
| 2026-04-23 14:53 | 42.42799 | 20.45558 | 18939 ft | 419 kts | 252° |
| 2026-04-23 14:53 | 42.41773 | 20.41820 | 19488 ft | 424 kts | 252° |
| 2026-04-23 14:53 | 42.40748 | 20.38099 | 19993 ft | 429 kts | 252° |
| 2026-04-23 14:53 | 42.39695 | 20.34285 | 20512 ft | 433 kts | 251° |
| 2026-04-23 14:54 | 42.38639 | 20.30469 | 21000 ft | 438 kts | 251° |
| 2026-04-23 14:54 | 42.37567 | 20.26603 | 21525 ft | 441 kts | 251° |
| 2026-04-23 14:54 | 42.36494 | 20.22733 | 22079 ft | 444 kts | 251° |
| 2026-04-23 14:54 | 42.35508 | 20.18749 | 22568 ft | 447 kts | 255° |
| 2026-04-23 14:55 | 42.34723 | 20.14743 | 23017 ft | 450 kts | 259° |
| 2026-04-23 14:55 | 42.34102 | 20.10676 | 23447 ft | 454 kts | 261° |
| 2026-04-23 14:55 | 42.33504 | 20.06419 | 23874 ft | 459 kts | 262° |
| 2026-04-23 14:55 | 42.32916 | 20.02202 | 24319 ft | 462 kts | 262° |
| 2026-04-23 14:56 | 42.32302 | 19.97855 | 24786 ft | 465 kts | 261° |
| 2026-04-23 14:56 | 42.31682 | 19.93515 | 25231 ft | 469 kts | 261° |
| 2026-04-23 14:56 | 42.31069 | 19.89269 | 25745 ft | 469 kts | 261° |
| 2026-04-23 14:56 | 42.30438 | 19.84928 | 26269 ft | 469 kts | 261° |
| 2026-04-23 14:57 | 42.29798 | 19.80525 | 26673 ft | 472 kts | 261° |
| 2026-04-23 14:57 | 42.29156 | 19.76132 | 27080 ft | 475 kts | 261° |
| 2026-04-23 14:57 | 42.28513 | 19.71753 | 27471 ft | 477 kts | 261° |
| 2026-04-23 14:57 | 42.27876 | 19.67411 | 27811 ft | 481 kts | 261° |
| 2026-04-23 14:58 | 42.27229 | 19.63030 | 28168 ft | 483 kts | 261° |
| 2026-04-23 14:58 | 42.26564 | 19.58524 | 28545 ft | 486 kts | 261° |
| 2026-04-23 14:58 | 42.25901 | 19.54046 | 28867 ft | 489 kts | 261° |
| 2026-04-23 14:58 | 42.25239 | 19.49585 | 29188 ft | 492 kts | 262° |
| 2026-04-23 14:59 | 42.24917 | 19.44975 | 29474 ft | 490 kts | 275° |
| 2026-04-23 14:59 | 42.25415 | 19.40435 | 29811 ft | 483 kts | 291° |
| 2026-04-23 14:59 | 42.26666 | 19.36291 | 30252 ft | 471 kts | 306° |
| 2026-04-23 14:59 | 42.28566 | 19.32687 | 30693 ft | 458 kts | 319° |
| 2026-04-23 15:00 | 42.30848 | 19.29921 | 31070 ft | 446 kts | 331° |
| 2026-04-23 15:00 | 42.33523 | 19.27866 | 31445 ft | 433 kts | 344° |
| 2026-04-23 15:00 | 42.36309 | 19.26445 | 31822 ft | 428 kts | 348° |
| 2026-04-23 15:00 | 42.39103 | 19.25184 | 32181 ft | 426 kts | 349° |
| 2026-04-23 15:01 | 42.41946 | 19.24006 | 32545 ft | 425 kts | 350° |
| 2026-04-23 15:01 | 42.44735 | 19.22859 | 32900 ft | 423 kts | 349° |
| 2026-04-23 15:01 | 42.47560 | 19.21688 | 33224 ft | 423 kts | 349° |
| 2026-04-23 15:01 | 42.50378 | 19.20514 | 33548 ft | 422 kts | 349° |
| 2026-04-23 15:02 | 42.52235 | 19.19737 | 33743 ft | 422 kts | 349° |
| 2026-04-23 15:02 | 42.55966 | 19.18167 | 34095 ft | 423 kts | 349° |
| 2026-04-23 15:02 | 42.58757 | 19.16990 | 34366 ft | 423 kts | 349° |
| 2026-04-23 15:02 | 42.61558 | 19.15805 | 34624 ft | 422 kts | 349° |
| 2026-04-23 15:03 | 42.64367 | 19.14615 | 34838 ft | 422 kts | 348° |
| 2026-04-23 15:03 | 42.67179 | 19.13421 | 35077 ft | 421 kts | 348° |
| 2026-04-23 15:03 | 42.69960 | 19.12241 | 35313 ft | 420 kts | 348° |
| 2026-04-23 15:03 | 42.72719 | 19.11067 | 35507 ft | 419 kts | 348° |
| 2026-04-23 15:04 | 42.75516 | 19.09876 | 35721 ft | 418 kts | 348° |
| 2026-04-23 15:04 | 42.78290 | 19.08694 | 35926 ft | 417 kts | 348° |
| 2026-04-23 15:04 | 42.81034 | 19.07523 | 36117 ft | 416 kts | 348° |
| 2026-04-23 15:04 | 42.83774 | 19.06354 | 36299 ft | 415 kts | 348° |
| 2026-04-23 15:05 | 42.86533 | 19.05176 | 36513 ft | 414 kts | 348° |
| 2026-04-23 15:05 | 42.89280 | 19.04000 | 36707 ft | 413 kts | 348° |
| 2026-04-23 15:05 | 42.92020 | 19.02828 | 36900 ft | 413 kts | 348° |
| 2026-04-23 15:05 | 42.94732 | 19.01666 | 37059 ft | 414 kts | 348° |
| 2026-04-23 15:06 | 42.97478 | 19.00488 | 37197 ft | 415 kts | 348° |
| 2026-04-23 15:06 | 43.00232 | 18.99309 | 37355 ft | 415 kts | 348° |
| 2026-04-23 15:06 | 43.02976 | 18.98130 | 37479 ft | 416 kts | 348° |
| 2026-04-23 15:06 | 43.05739 | 18.96941 | 37600 ft | 417 kts | 348° |
| 2026-04-23 15:07 | 43.08516 | 18.95745 | 37720 ft | 417 kts | 348° |
| 2026-04-23 15:07 | 43.11271 | 18.94559 | 37872 ft | 417 kts | 348° |
| 2026-04-23 15:07 | 43.16840 | 18.92154 | 38044 ft | 419 kts | 348° |
| 2026-04-23 15:08 | 43.22396 | 18.89754 | 38075 ft | 419 kts | 348° |
| 2026-04-23 15:09 | 43.30701 | 18.86152 | 38058 ft | 419 kts | 347° |
| 2026-04-23 15:09 | 43.36272 | 18.83732 | 38049 ft | 419 kts | 347° |
| 2026-04-23 15:10 | 43.40904 | 18.81712 | 38061 ft | 419 kts | 347° |
| 2026-04-23 15:10 | 43.47366 | 18.79030 | 38063 ft | 417 kts | 351° |
| 2026-04-23 15:11 | 43.53026 | 18.77441 | 38087 ft | 417 kts | 354° |
| 2026-04-23 15:11 | 43.58747 | 18.76054 | 38086 ft | 417 kts | 354° |
| 2026-04-23 15:12 | 43.64464 | 18.74665 | 38092 ft | 417 kts | 354° |
| 2026-04-23 15:12 | 43.70143 | 18.73281 | 38084 ft | 417 kts | 354° |
| 2026-04-23 15:13 | 43.75865 | 18.71883 | 38092 ft | 417 kts | 354° |
| 2026-04-23 15:13 | 43.81539 | 18.70490 | 38082 ft | 417 kts | 354° |
| 2026-04-23 15:14 | 43.87238 | 18.69088 | 38080 ft | 417 kts | 354° |
| 2026-04-23 15:14 | 43.92948 | 18.67683 | 38086 ft | 419 kts | 354° |
| 2026-04-23 15:15 | 43.98696 | 18.66269 | 38085 ft | 424 kts | 354° |
| 2026-04-23 15:15 | 44.04538 | 18.64826 | 38076 ft | 427 kts | 353° |
| 2026-04-23 15:16 | 44.10391 | 18.63374 | 38080 ft | 428 kts | 353° |
| 2026-04-23 15:16 | 44.16259 | 18.61915 | 38077 ft | 428 kts | 354° |
| 2026-04-23 15:17 | 44.22112 | 18.60460 | 38082 ft | 428 kts | 353° |
| 2026-04-23 15:17 | 44.27957 | 18.59004 | 38087 ft | 429 kts | 353° |
| 2026-04-23 15:18 | 44.33815 | 18.57541 | 38081 ft | 429 kts | 353° |
| 2026-04-23 15:18 | 44.39678 | 18.56075 | 38095 ft | 429 kts | 353° |
| 2026-04-23 15:19 | 44.45529 | 18.54606 | 38081 ft | 429 kts | 353° |
| 2026-04-23 15:19 | 44.51373 | 18.53136 | 38092 ft | 429 kts | 353° |
| 2026-04-23 15:20 | 44.56298 | 18.51897 | 38088 ft | 429 kts | 353° |
| 2026-04-23 15:20 | 44.63128 | 18.50175 | 38091 ft | 430 kts | 353° |
| 2026-04-23 15:21 | 44.68989 | 18.48694 | 38081 ft | 430 kts | 353° |
| 2026-04-23 15:21 | 44.74903 | 18.47195 | 38082 ft | 430 kts | 353° |
| 2026-04-23 15:22 | 44.80774 | 18.45703 | 38084 ft | 430 kts | 353° |
| 2026-04-23 15:22 | 44.86628 | 18.44215 | 38079 ft | 430 kts | 353° |
| 2026-04-23 15:23 | 44.92505 | 18.42713 | 38087 ft | 430 kts | 353° |
| 2026-04-23 15:23 | 44.98375 | 18.41212 | 38088 ft | 431 kts | 353° |
| 2026-04-23 15:24 | 45.04284 | 18.39700 | 38085 ft | 431 kts | 353° |
| 2026-04-23 15:24 | 45.10201 | 18.38644 | 38081 ft | 428 kts | 359° |
| 2026-04-23 15:25 | 45.16149 | 18.38476 | 38082 ft | 427 kts | 4° |
| 2026-04-23 15:25 | 45.22084 | 18.38748 | 38084 ft | 427 kts | 4° |
| 2026-04-23 15:26 | 45.28018 | 18.39046 | 38085 ft | 427 kts | 4° |
| 2026-04-23 15:26 | 45.33921 | 18.39339 | 38080 ft | 427 kts | 4° |
| 2026-04-23 15:27 | 45.39854 | 18.39632 | 38073 ft | 427 kts | 4° |
| 2026-04-23 15:27 | 45.45789 | 18.39925 | 38069 ft | 427 kts | 4° |
| 2026-04-23 15:28 | 45.51679 | 18.40215 | 38191 ft | 427 kts | 4° |
| 2026-04-23 15:28 | 45.57594 | 18.40506 | 38088 ft | 426 kts | 4° |
| 2026-04-23 15:29 | 45.63538 | 18.40799 | 37864 ft | 426 kts | 4° |
| 2026-04-23 15:29 | 45.66482 | 18.40945 | 38005 ft | 425 kts | 4° |
| 2026-04-23 15:29 | 45.69403 | 18.41090 | 38048 ft | 426 kts | 4° |
| 2026-04-23 15:29 | 45.72362 | 18.41215 | 38182 ft | 427 kts | 2° |
| 2026-04-23 15:30 | 45.75343 | 18.41150 | 38113 ft | 427 kts | 359° |
| 2026-04-23 15:30 | 45.81233 | 18.40495 | 38078 ft | 427 kts | 357° |
| 2026-04-23 15:31 | 45.87074 | 18.39712 | 38075 ft | 427 kts | 357° |
| 2026-04-23 15:31 | 45.93001 | 18.38915 | 38072 ft | 427 kts | 357° |
| 2026-04-23 15:31 | 45.95922 | 18.38522 | 37918 ft | 426 kts | 357° |
| 2026-04-23 15:32 | 45.98871 | 18.38126 | 38166 ft | 427 kts | 357° |
| 2026-04-23 15:32 | 46.04772 | 18.37334 | 38085 ft | 427 kts | 357° |
| 2026-04-23 15:33 | 46.10707 | 18.36536 | 38072 ft | 427 kts | 357° |
| 2026-04-23 15:33 | 46.16631 | 18.35738 | 38068 ft | 427 kts | 357° |
| 2026-04-23 15:34 | 46.22540 | 18.34940 | 38067 ft | 427 kts | 356° |
| 2026-04-23 15:34 | 46.28454 | 18.34139 | 38066 ft | 427 kts | 356° |
| 2026-04-23 15:35 | 46.34342 | 18.33341 | 38066 ft | 427 kts | 356° |
| 2026-04-23 15:35 | 46.40233 | 18.32541 | 38065 ft | 427 kts | 356° |
| 2026-04-23 15:36 | 46.46127 | 18.31740 | 38062 ft | 427 kts | 356° |
| 2026-04-23 15:36 | 46.52042 | 18.30933 | 38059 ft | 427 kts | 356° |
| 2026-04-23 15:37 | 46.57961 | 18.30124 | 38060 ft | 427 kts | 356° |
| 2026-04-23 15:37 | 46.62844 | 18.29455 | 38059 ft | 427 kts | 356° |
| 2026-04-23 15:38 | 46.69741 | 18.28508 | 38055 ft | 426 kts | 356° |
| 2026-04-23 15:38 | 46.75657 | 18.27694 | 38058 ft | 427 kts | 356° |
| 2026-04-23 15:39 | 46.81533 | 18.26883 | 38055 ft | 427 kts | 356° |
| 2026-04-23 15:39 | 46.87439 | 18.26066 | 38059 ft | 427 kts | 356° |
| 2026-04-23 15:40 | 46.93401 | 18.25241 | 38055 ft | 427 kts | 356° |
| 2026-04-23 15:40 | 46.99391 | 18.24409 | 38054 ft | 426 kts | 356° |
| 2026-04-23 15:41 | 47.05347 | 18.23580 | 38050 ft | 426 kts | 356° |
| 2026-04-23 15:41 | 47.11371 | 18.22741 | 38063 ft | 426 kts | 356° |
| 2026-04-23 15:42 | 47.17354 | 18.21902 | 38054 ft | 426 kts | 356° |
| 2026-04-23 15:42 | 47.23284 | 18.21071 | 37845 ft | 425 kts | 356° |
| 2026-04-23 15:42 | 47.26220 | 18.20659 | 37982 ft | 425 kts | 356° |
| 2026-04-23 15:43 | 47.29124 | 18.20252 | 38036 ft | 425 kts | 356° |
| 2026-04-23 15:43 | 47.35004 | 18.19424 | 38067 ft | 425 kts | 356° |
| 2026-04-23 15:44 | 47.40852 | 18.18600 | 38054 ft | 425 kts | 357° |
| 2026-04-23 15:44 | 47.46756 | 18.17765 | 38063 ft | 425 kts | 356° |
| 2026-04-23 15:45 | 47.52585 | 18.16938 | 38058 ft | 424 kts | 357° |
| 2026-04-23 15:45 | 47.58475 | 18.16101 | 38049 ft | 424 kts | 357° |
| 2026-04-23 15:46 | 47.64316 | 18.15270 | 38067 ft | 423 kts | 357° |
| 2026-04-23 15:46 | 47.70159 | 18.14438 | 38062 ft | 423 kts | 357° |
| 2026-04-23 15:47 | 47.75982 | 18.13604 | 38048 ft | 423 kts | 357° |
| 2026-04-23 15:47 | 47.81854 | 18.12763 | 38055 ft | 422 kts | 357° |
| 2026-04-23 15:48 | 47.87738 | 18.11917 | 38058 ft | 422 kts | 357° |
| 2026-04-23 15:48 | 47.93546 | 18.11080 | 38066 ft | 421 kts | 357° |
| 2026-04-23 15:49 | 47.99330 | 18.10247 | 38058 ft | 420 kts | 357° |
| 2026-04-23 15:49 | 48.05242 | 18.09393 | 38055 ft | 420 kts | 357° |
| 2026-04-23 15:50 | 48.11081 | 18.08544 | 38059 ft | 420 kts | 358° |
| 2026-04-23 15:50 | 48.16770 | 18.07719 | 38059 ft | 419 kts | 358° |
| 2026-04-23 15:51 | 48.22536 | 18.06879 | 38050 ft | 418 kts | 358° |
| 2026-04-23 15:51 | 48.28318 | 18.06034 | 38052 ft | 416 kts | 358° |
| 2026-04-23 15:52 | 48.34069 | 18.05194 | 38054 ft | 415 kts | 358° |
| 2026-04-23 15:52 | 48.39793 | 18.04355 | 38052 ft | 416 kts | 358° |
| 2026-04-23 15:53 | 48.45551 | 18.03508 | 38060 ft | 415 kts | 358° |
| 2026-04-23 15:53 | 48.51258 | 18.02668 | 38057 ft | 413 kts | 358° |
| 2026-04-23 15:54 | 48.56956 | 18.01828 | 38057 ft | 413 kts | 358° |
| 2026-04-23 15:54 | 48.62666 | 18.00980 | 38061 ft | 412 kts | 358° |
| 2026-04-23 15:55 | 48.68340 | 18.00141 | 38065 ft | 411 kts | 358° |
| 2026-04-23 15:55 | 48.73994 | 17.99297 | 38066 ft | 410 kts | 358° |
| 2026-04-23 15:56 | 48.79660 | 17.98457 | 38066 ft | 410 kts | 358° |
| 2026-04-23 15:56 | 48.85314 | 17.97611 | 38054 ft | 409 kts | 358° |
| 2026-04-23 15:57 | 48.90957 | 17.96765 | 38054 ft | 409 kts | 359° |
| 2026-04-23 15:57 | 48.96627 | 17.95914 | 38056 ft | 409 kts | 359° |
| 2026-04-23 15:58 | 49.02264 | 17.94921 | 38055 ft | 409 kts | 355° |
| 2026-04-23 15:58 | 49.07839 | 17.93224 | 38056 ft | 410 kts | 353° |
| 2026-04-23 15:59 | 49.13412 | 17.91335 | 38059 ft | 410 kts | 352° |
| 2026-04-23 15:59 | 49.18978 | 17.89435 | 38061 ft | 410 kts | 352° |
| 2026-04-23 16:00 | 49.24515 | 17.87539 | 38066 ft | 410 kts | 352° |
| 2026-04-23 16:00 | 49.30098 | 17.85626 | 38067 ft | 410 kts | 353° |
| 2026-04-23 16:01 | 49.35632 | 17.83730 | 38069 ft | 409 kts | 352° |
| 2026-04-23 16:01 | 49.41163 | 17.81827 | 38068 ft | 409 kts | 352° |
| 2026-04-23 16:02 | 49.46692 | 17.79920 | 38065 ft | 409 kts | 353° |
| 2026-04-23 16:02 | 49.52237 | 17.78003 | 38074 ft | 408 kts | 352° |
| 2026-04-23 16:03 | 49.57786 | 17.76079 | 38073 ft | 408 kts | 353° |
| 2026-04-23 16:03 | 49.63296 | 17.74166 | 38074 ft | 407 kts | 353° |
| 2026-04-23 16:04 | 49.68797 | 17.72252 | 38070 ft | 407 kts | 353° |
| 2026-04-23 16:04 | 49.74297 | 17.70332 | 38066 ft | 407 kts | 353° |
| 2026-04-23 16:05 | 49.78894 | 17.68727 | 38072 ft | 407 kts | 353° |
| 2026-04-23 16:05 | 49.85289 | 17.66486 | 38071 ft | 405 kts | 352° |
| 2026-04-23 16:06 | 49.90793 | 17.64550 | 38072 ft | 406 kts | 353° |
| 2026-04-23 16:06 | 49.96267 | 17.62623 | 38077 ft | 404 kts | 353° |
| 2026-04-23 16:07 | 50.01733 | 17.60692 | 38075 ft | 405 kts | 353° |
| 2026-04-23 16:07 | 50.07200 | 17.58758 | 38073 ft | 405 kts | 353° |
| 2026-04-23 16:08 | 50.12693 | 17.56812 | 38073 ft | 404 kts | 353° |
| 2026-04-23 16:08 | 50.18156 | 17.54869 | 38072 ft | 403 kts | 352° |
| 2026-04-23 16:09 | 50.23642 | 17.52909 | 38072 ft | 403 kts | 353° |
| 2026-04-23 16:09 | 50.29094 | 17.51017 | 38073 ft | 402 kts | 354° |
| 2026-04-23 16:10 | 50.34571 | 17.49318 | 38186 ft | 401 kts | 354° |
| 2026-04-23 16:10 | 50.37295 | 17.48474 | 37917 ft | 399 kts | 354° |
| 2026-04-23 16:10 | 50.39988 | 17.47638 | 38026 ft | 400 kts | 354° |
| 2026-04-23 16:10 | 50.42721 | 17.46786 | 38188 ft | 401 kts | 354° |
| 2026-04-23 16:11 | 50.45436 | 17.45936 | 38117 ft | 400 kts | 354° |
| 2026-04-23 16:11 | 50.50861 | 17.44230 | 38083 ft | 399 kts | 354° |
| 2026-04-23 16:12 | 50.56309 | 17.42509 | 38078 ft | 399 kts | 354° |
| 2026-04-23 16:12 | 50.61742 | 17.40790 | 38074 ft | 399 kts | 354° |
| 2026-04-23 16:13 | 50.67169 | 17.39068 | 38075 ft | 399 kts | 353° |
| 2026-04-23 16:13 | 50.75275 | 17.36489 | 38075 ft | 399 kts | 353° |
| 2026-04-23 16:14 | 50.80682 | 17.34764 | 38072 ft | 397 kts | 353° |
| 2026-04-23 16:14 | 50.86100 | 17.33028 | 38069 ft | 398 kts | 353° |
| 2026-04-23 16:15 | 50.91536 | 17.31285 | 38076 ft | 398 kts | 353° |
| 2026-04-23 16:15 | 50.96922 | 17.29553 | 38071 ft | 398 kts | 353° |
| 2026-04-23 16:16 | 51.02303 | 17.27820 | 38069 ft | 397 kts | 353° |
| 2026-04-23 16:16 | 51.07675 | 17.26086 | 38069 ft | 397 kts | 352° |
| 2026-04-23 16:17 | 51.12900 | 17.24392 | 38070 ft | 397 kts | 352° |
| 2026-04-23 16:17 | 51.18389 | 17.22611 | 38076 ft | 397 kts | 352° |
| 2026-04-23 16:18 | 51.23752 | 17.20862 | 38069 ft | 397 kts | 353° |
| 2026-04-23 16:18 | 51.29153 | 17.19102 | 38074 ft | 397 kts | 352° |
| 2026-04-23 16:19 | 51.34513 | 17.17350 | 38074 ft | 397 kts | 352° |
| 2026-04-23 16:19 | 51.39909 | 17.15578 | 38070 ft | 397 kts | 352° |
| 2026-04-23 16:20 | 51.45265 | 17.13818 | 38071 ft | 396 kts | 352° |
| 2026-04-23 16:20 | 51.50592 | 17.11571 | 38068 ft | 399 kts | 347° |
| 2026-04-23 16:21 | 51.55838 | 17.08541 | 38074 ft | 401 kts | 344° |
| 2026-04-23 16:21 | 51.61008 | 17.05348 | 38089 ft | 401 kts | 344° |
| 2026-04-23 16:22 | 51.66182 | 17.02140 | 38092 ft | 400 kts | 344° |
| 2026-04-23 16:22 | 51.71389 | 16.98913 | 38080 ft | 399 kts | 344° |
| 2026-04-23 16:23 | 51.76677 | 16.95683 | 38074 ft | 398 kts | 344° |
| 2026-04-23 16:23 | 51.81822 | 16.92532 | 38074 ft | 397 kts | 343° |
| 2026-04-23 16:24 | 51.87004 | 16.89347 | 38074 ft | 398 kts | 343° |
| 2026-04-23 16:24 | 51.92154 | 16.86171 | 38072 ft | 398 kts | 344° |
| 2026-04-23 16:25 | 51.97299 | 16.82988 | 38073 ft | 398 kts | 343° |
| 2026-04-23 16:25 | 52.02443 | 16.79800 | 38074 ft | 397 kts | 343° |
| 2026-04-23 16:26 | 52.07610 | 16.76588 | 38077 ft | 398 kts | 343° |
| 2026-04-23 16:26 | 52.12742 | 16.73391 | 38075 ft | 397 kts | 343° |
| 2026-04-23 16:27 | 52.17923 | 16.70154 | 38077 ft | 396 kts | 343° |
| 2026-04-23 16:27 | 52.23051 | 16.66942 | 38076 ft | 396 kts | 343° |
| 2026-04-23 16:28 | 52.28156 | 16.63738 | 38076 ft | 396 kts | 343° |
| 2026-04-23 16:28 | 52.33287 | 16.60509 | 38078 ft | 397 kts | 343° |
| 2026-04-23 16:29 | 52.38448 | 16.57254 | 38077 ft | 396 kts | 343° |
| 2026-04-23 16:29 | 52.43537 | 16.54037 | 38078 ft | 396 kts | 343° |
| 2026-04-23 16:30 | 52.48669 | 16.50782 | 38083 ft | 396 kts | 343° |
| 2026-04-23 16:30 | 52.53780 | 16.47534 | 38084 ft | 396 kts | 343° |
| 2026-04-23 16:31 | 52.58892 | 16.44274 | 38079 ft | 395 kts | 343° |
| 2026-04-23 16:31 | 52.63984 | 16.41021 | 38077 ft | 395 kts | 343° |
| 2026-04-23 16:32 | 52.68959 | 16.37838 | 38079 ft | 395 kts | 343° |
| 2026-04-23 16:32 | 52.74053 | 16.34568 | 38084 ft | 394 kts | 342° |
| 2026-04-23 16:33 | 52.79055 | 16.31347 | 38084 ft | 395 kts | 342° |
| 2026-04-23 16:33 | 52.84201 | 16.28026 | 38086 ft | 395 kts | 342° |
| 2026-04-23 16:34 | 52.89272 | 16.24748 | 38088 ft | 394 kts | 342° |
| 2026-04-23 16:34 | 52.94366 | 16.21444 | 38092 ft | 394 kts | 342° |
| 2026-04-23 16:35 | 52.99476 | 16.18122 | 38091 ft | 394 kts | 342° |
| 2026-04-23 16:35 | 53.04628 | 16.14764 | 38088 ft | 394 kts | 342° |
| 2026-04-23 16:36 | 53.09584 | 16.11526 | 38091 ft | 393 kts | 342° |
| 2026-04-23 16:36 | 53.14535 | 16.08283 | 38095 ft | 393 kts | 342° |
| 2026-04-23 16:37 | 53.19583 | 16.04969 | 38097 ft | 393 kts | 342° |
| 2026-04-23 16:37 | 53.24685 | 16.01609 | 38099 ft | 394 kts | 342° |
| 2026-04-23 16:38 | 53.29794 | 15.98238 | 38099 ft | 394 kts | 342° |
| 2026-04-23 16:38 | 53.34888 | 15.94864 | 38103 ft | 394 kts | 342° |
| 2026-04-23 16:39 | 53.40029 | 15.91455 | 38104 ft | 394 kts | 342° |
| 2026-04-23 16:39 | 53.45232 | 15.87994 | 38104 ft | 394 kts | 341° |
| 2026-04-23 16:40 | 53.50372 | 15.84566 | 38104 ft | 394 kts | 341° |
| 2026-04-23 16:40 | 53.55439 | 15.81176 | 38105 ft | 394 kts | 341° |
| 2026-04-23 16:41 | 53.60635 | 15.77694 | 38106 ft | 394 kts | 341° |
| 2026-04-23 16:41 | 53.65779 | 15.74235 | 38104 ft | 394 kts | 341° |
| 2026-04-23 16:42 | 53.70841 | 15.70824 | 38109 ft | 394 kts | 341° |
| 2026-04-23 16:42 | 53.75938 | 15.67379 | 38110 ft | 395 kts | 341° |
| 2026-04-23 16:43 | 53.81059 | 15.63909 | 38112 ft | 395 kts | 341° |
| 2026-04-23 16:43 | 53.86192 | 15.60422 | 38115 ft | 395 kts | 341° |
| 2026-04-23 16:44 | 53.91308 | 15.56937 | 38116 ft | 395 kts | 341° |
| 2026-04-23 16:44 | 53.96463 | 15.53417 | 38116 ft | 394 kts | 341° |
| 2026-04-23 16:45 | 54.01562 | 15.49925 | 38117 ft | 395 kts | 341° |
| 2026-04-23 16:45 | 54.06656 | 15.46429 | 38112 ft | 395 kts | 341° |
| 2026-04-23 16:46 | 54.11736 | 15.42930 | 38113 ft | 395 kts | 341° |
| 2026-04-23 16:46 | 54.16748 | 15.39472 | 38110 ft | 395 kts | 341° |
| 2026-04-23 16:47 | 54.21728 | 15.36025 | 38109 ft | 395 kts | 341° |
| 2026-04-23 16:47 | 54.26804 | 15.32501 | 38107 ft | 395 kts | 340° |
| 2026-04-23 16:48 | 54.31896 | 15.28961 | 38107 ft | 396 kts | 340° |
| 2026-04-23 16:48 | 54.37000 | 15.25399 | 38102 ft | 396 kts | 340° |
| 2026-04-23 16:49 | 54.42083 | 15.21842 | 38106 ft | 396 kts | 340° |
| 2026-04-23 16:49 | 54.47144 | 15.18294 | 38098 ft | 396 kts | 340° |
| 2026-04-23 16:50 | 54.52245 | 15.14707 | 38097 ft | 396 kts | 340° |
| 2026-04-23 16:50 | 54.57334 | 15.11119 | 38100 ft | 396 kts | 340° |
| 2026-04-23 16:51 | 54.62386 | 15.07548 | 38094 ft | 396 kts | 340° |
| 2026-04-23 16:51 | 54.67497 | 15.03922 | 38096 ft | 396 kts | 340° |
| 2026-04-23 16:52 | 54.72574 | 15.00315 | 38087 ft | 396 kts | 339° |
| 2026-04-23 16:52 | 54.77629 | 14.96711 | 38084 ft | 396 kts | 339° |
| 2026-04-23 16:53 | 54.82703 | 14.93079 | 38086 ft | 397 kts | 340° |
| 2026-04-23 16:53 | 54.87806 | 14.89424 | 38085 ft | 397 kts | 339° |
| 2026-04-23 16:54 | 54.92889 | 14.85769 | 38080 ft | 397 kts | 339° |
| 2026-04-23 16:54 | 54.97948 | 14.82120 | 38081 ft | 397 kts | 339° |
| 2026-04-23 16:55 | 55.03059 | 14.78424 | 38082 ft | 397 kts | 339° |
| 2026-04-23 16:55 | 55.08106 | 14.74618 | 38083 ft | 398 kts | 337° |
| 2026-04-23 16:56 | 55.13085 | 14.70526 | 38081 ft | 398 kts | 336° |
| 2026-04-23 16:56 | 55.18087 | 14.66383 | 38078 ft | 398 kts | 336° |
| 2026-04-23 16:57 | 55.23103 | 14.62219 | 38074 ft | 399 kts | 336° |
| 2026-04-23 16:57 | 55.28068 | 14.58087 | 38070 ft | 399 kts | 336° |
| 2026-04-23 16:58 | 55.33078 | 14.53902 | 38073 ft | 398 kts | 336° |
| 2026-04-23 16:58 | 55.38041 | 14.49749 | 38073 ft | 398 kts | 336° |
| 2026-04-23 16:59 | 55.43016 | 14.45574 | 38072 ft | 399 kts | 336° |
| 2026-04-23 16:59 | 55.48013 | 14.41369 | 38068 ft | 399 kts | 336° |
| 2026-04-23 17:00 | 55.52999 | 14.37158 | 38067 ft | 399 kts | 336° |
| 2026-04-23 17:00 | 55.57914 | 14.32995 | 38066 ft | 399 kts | 335° |
| 2026-04-23 17:01 | 55.62955 | 14.28718 | 38067 ft | 399 kts | 335° |
| 2026-04-23 17:01 | 55.67977 | 14.24444 | 38065 ft | 399 kts | 335° |
| 2026-04-23 17:02 | 55.72973 | 14.20178 | 38061 ft | 400 kts | 335° |
| 2026-04-23 17:02 | 55.77893 | 14.15965 | 38062 ft | 400 kts | 335° |
| 2026-04-23 17:03 | 55.82856 | 14.11703 | 38059 ft | 400 kts | 335° |
| 2026-04-23 17:03 | 55.87878 | 14.07379 | 38063 ft | 401 kts | 335° |
| 2026-04-23 17:04 | 55.92863 | 14.03076 | 38061 ft | 401 kts | 335° |
| 2026-04-23 17:04 | 55.97786 | 13.98811 | 38060 ft | 394 kts | 335° |
| 2026-04-23 17:05 | 56.02821 | 13.94439 | 38060 ft | 393 kts | 335° |
| 2026-04-23 17:05 | 56.07713 | 13.90177 | 38063 ft | 394 kts | 335° |
| 2026-04-23 17:06 | 56.11987 | 13.86442 | 38065 ft | 394 kts | 335° |